Time;durP1;ratioP1;P1;durP2;ratioP2;P2;SDS_P1;SDS_P2;PMS_P1;PMS_P2;Temp;Humidity;BMP_temperature;BMP_pressure;BME280_temperature;BME280_humidity;BME280_pressure;Samples;Min_cycle;Max_cycle;Signal;HPM_P1;HPM_P2
2023/10/21 00:01:59;;;;;;;13.90;9.00;;;;;;;9.58;97.88;98014.30;130960;1257;107791;-76
2023/10/21 00:05:06;;;;;;;14.90;9.90;;;;;;;9.60;98.03;98028.56;130965;1257;107699;-78
2023/10/21 00:08:11;;;;;;;14.50;10.40;;;;;;;9.62;98.06;98027.17;130962;1257;107424;-76
2023/10/21 00:11:17;;;;;;;15.20;10.10;;;;;;;9.66;97.91;98024.41;130979;1256;106668;-76
2023/10/21 00:14:23;;;;;;;14.30;10.10;;;;;;;9.67;97.67;98023.79;130889;1258;108582;-76
2023/10/21 00:17:29;;;;;;;12.60;8.80;;;;;;;9.69;97.99;98034.16;130926;1257;108603;-76
2023/10/21 00:20:35;;;;;;;15.10;10.00;;;;;;;9.71;98.04;98032.08;130939;1257;108404;-77
2023/10/21 00:23:40;;;;;;;14.30;10.60;;;;;;;9.75;97.93;98024.66;130962;1256;106982;-76
2023/10/21 00:26:47;;;;;;;13.50;9.70;;;;;;;9.78;97.86;98032.13;130887;1252;109455;-76
2023/10/21 00:29:53;;;;;;;14.70;9.80;;;;;;;9.78;98.32;98048.71;130914;1258;105893;-76
2023/10/21 00:32:59;;;;;;;13.40;9.00;;;;;;;9.78;98.19;98056.51;130990;1251;107362;-76
2023/10/21 00:36:05;;;;;;;15.30;10.30;;;;;;;9.80;98.29;98059.13;130773;1257;109110;-76
2023/10/21 00:39:11;;;;;;;15.40;10.90;;;;;;;9.84;98.21;98051.34;130994;1264;108309;-76
2023/10/21 00:42:17;;;;;;;17.20;10.90;;;;;;;9.86;97.79;98050.90;130959;1258;108464;-76
2023/10/21 00:45:23;;;;;;;14.60;10.20;;;;;;;9.86;98.18;98049.47;130937;1257;106894;-76
2023/10/21 00:48:32;;;;;;;13.70;9.60;;;;;;;9.87;98.33;98054.39;130973;1257;106853;-76
2023/10/21 00:51:39;;;;;;;15.80;10.30;;;;;;;9.89;98.44;98058.32;130738;1257;108249;-76
2023/10/21 00:54:45;;;;;;;13.70;10.10;;;;;;;9.93;98.38;98062.30;130740;1251;108912;-76
2023/10/21 00:57:51;;;;;;;16.10;10.20;;;;;;;9.95;98.35;98054.15;130865;1257;108685;-79
2023/10/21 01:00:57;;;;;;;17.70;10.50;;;;;;;9.97;98.50;98036.45;130816;1252;108785;-77
2023/10/21 01:04:04;;;;;;;14.90;9.80;;;;;;;9.98;98.56;98036.87;130652;1257;108538;-77
2023/10/21 01:07:17;;;;;;;17.30;10.60;;;;;;;10.00;98.83;98042.30;131007;1267;107524;-77
2023/10/21 01:10:23;;;;;;;13.90;10.40;;;;;;;10.02;98.32;98044.52;130826;1257;107401;-78
2023/10/21 01:13:30;;;;;;;16.30;11.20;;;;;;;10.03;98.55;98044.85;131252;1251;106512;-78
2023/10/21 01:16:39;;;;;;;15.00;10.50;;;;;;;10.04;98.50;98044.80;131154;1257;107156;-78
2023/10/21 01:19:48;;;;;;;16.00;9.60;;;;;;;10.05;98.56;98036.66;131144;1257;108079;-78
2023/10/21 01:22:55;;;;;;;14.80;10.80;;;;;;;10.07;98.41;98035.15;131021;1256;108661;-78
2023/10/21 01:26:01;;;;;;;17.30;11.30;;;;;;;10.10;98.52;98041.01;130723;1251;108552;-78
2023/10/21 01:29:10;;;;;;;16.10;11.60;;;;;;;10.13;98.82;98044.48;130744;1257;106825;-78
2023/10/21 01:32:15;;;;;;;17.60;10.90;;;;;;;10.13;98.68;98040.71;131134;1256;108605;-76
2023/10/21 01:35:21;;;;;;;14.30;9.30;;;;;;;10.14;98.72;98030.35;131089;1255;108512;-76
2023/10/21 01:38:28;;;;;;;17.80;10.80;;;;;;;10.15;98.93;98020.70;131025;1256;107756;-76
2023/10/21 01:41:34;;;;;;;15.10;10.80;;;;;;;10.17;98.77;98032.77;130770;1256;106781;-77
2023/10/21 01:44:40;;;;;;;16.60;11.70;;;;;;;10.19;98.54;98044.70;130829;1251;108448;-77
2023/10/21 01:47:46;;;;;;;15.30;10.50;;;;;;;10.19;98.79;98046.63;131173;1250;107612;-79
2023/10/21 01:51:04;;;;;;;15.30;10.90;;;;;;;10.20;98.85;98051.89;131203;1253;105352;-78
2023/10/21 01:54:10;;;;;;;17.50;11.40;;;;;;;10.21;99.05;98047.81;131200;1251;107667;-78
2023/10/21 01:57:15;;;;;;;18.40;12.90;;;;;;;10.23;98.97;98047.41;130957;1256;107061;-76
2023/10/21 02:00:22;;;;;;;19.70;13.50;;;;;;;10.26;99.14;98056.59;130678;1251;107667;-76
2023/10/21 02:03:28;;;;;;;16.70;11.60;;;;;;;10.28;99.07;98057.41;130974;1257;106523;-76
2023/10/21 02:06:34;;;;;;;15.90;10.70;;;;;;;10.29;99.05;98062.13;130969;1257;107741;-76
2023/10/21 02:09:40;;;;;;;16.90;11.10;;;;;;;10.30;99.51;98064.45;131033;1255;107616;-77
2023/10/21 02:12:45;;;;;;;18.20;12.00;;;;;;;10.32;99.50;98071.30;130923;1256;107937;-77
2023/10/21 02:15:51;;;;;;;17.80;12.90;;;;;;;10.34;98.92;98077.78;130944;1264;108704;-77
2023/10/21 02:18:57;;;;;;;17.30;11.90;;;;;;;10.34;99.18;98074.55;130914;1256;107597;-77
2023/10/21 02:22:04;;;;;;;15.50;10.80;;;;;;;10.36;99.38;98085.70;130957;1256;106910;-76
2023/10/21 02:25:13;;;;;;;15.10;11.20;;;;;;;10.38;98.85;98084.74;130984;1256;107763;-76
2023/10/21 02:28:19;;;;;;;14.90;10.90;;;;;;;10.39;98.94;98074.46;130957;1264;107671;-76
2023/10/21 02:31:24;;;;;;;17.40;11.50;;;;;;;10.42;99.25;98071.79;130957;1251;108501;-76
2023/10/21 02:34:30;;;;;;;21.40;12.40;;;;;;;10.42;99.36;98076.73;130891;1257;107557;-76
2023/10/21 02:37:35;;;;;;;20.10;11.40;;;;;;;10.43;99.22;98073.92;131024;1264;107999;-77
2023/10/21 02:40:43;;;;;;;24.20;12.40;;;;;;;10.44;99.08;98081.27;130935;1251;107254;-77
2023/10/21 02:43:49;;;;;;;39.70;17.20;;;;;;;10.47;99.63;98083.56;130893;1256;108797;-76
2023/10/21 02:46:55;;;;;;;67.40;25.80;;;;;;;10.49;99.38;98083.98;130930;1256;107795;-77
2023/10/21 02:50:00;;;;;;;25.80;14.20;;;;;;;10.53;99.17;98085.56;130914;1256;108642;-77
2023/10/21 02:53:06;;;;;;;25.40;13.50;;;;;;;10.54;98.98;98091.81;130948;1254;106671;-77
2023/10/21 02:56:13;;;;;;;15.10;9.80;;;;;;;10.55;99.50;98095.21;130888;1256;107432;-77
2023/10/21 02:59:18;;;;;;;14.40;10.50;;;;;;;10.56;99.13;98102.55;130902;1254;107701;-76
2023/10/21 03:02:24;;;;;;;15.10;11.20;;;;;;;10.58;99.04;98104.02;130879;1256;106609;-77
2023/10/21 03:05:30;;;;;;;15.20;11.20;;;;;;;10.60;99.20;98108.38;130928;1257;108649;-77
2023/10/21 03:08:35;;;;;;;19.00;12.00;;;;;;;10.62;99.23;98117.65;130865;1267;107838;-78
2023/10/21 03:11:41;;;;;;;17.90;11.30;;;;;;;10.62;99.22;98117.61;130910;1256;107715;-77
2023/10/21 03:14:46;;;;;;;18.20;11.50;;;;;;;10.62;99.29;98122.52;130881;1256;108630;-77
2023/10/21 03:17:52;;;;;;;20.70;13.40;;;;;;;10.65;99.16;98127.08;130939;1257;107766;-77
2023/10/21 03:20:57;;;;;;;14.80;10.40;;;;;;;10.66;99.21;98125.11;130750;1257;108587;-77
2023/10/21 03:24:03;;;;;;;14.10;10.10;;;;;;;10.65;99.12;98125.64;130648;1251;108815;-77
2023/10/21 03:27:09;;;;;;;14.90;9.80;;;;;;;10.63;99.27;98138.39;130601;1267;108413;-77
2023/10/21 03:30:17;;;;;;;14.40;9.70;;;;;;;10.64;99.37;98139.05;130808;1256;107672;-77
2023/10/21 03:33:23;;;;;;;14.00;10.70;;;;;;;10.64;99.22;98144.36;130923;1256;106936;-77
2023/10/21 03:36:28;;;;;;;18.60;11.50;;;;;;;10.67;99.37;98152.69;130987;1257;106946;-77
2023/10/21 03:39:34;;;;;;;15.40;10.60;;;;;;;10.68;99.24;98150.84;130921;1254;106350;-77
2023/10/21 03:42:40;;;;;;;16.00;10.10;;;;;;;10.67;99.37;98145.30;130879;1256;107534;-76
2023/10/21 03:45:47;;;;;;;15.10;10.00;;;;;;;10.66;99.26;98145.54;130925;1256;106639;-76
2023/10/21 03:48:53;;;;;;;14.60;10.90;;;;;;;10.67;99.53;98147.35;130901;1256;106821;-77
2023/10/21 03:51:58;;;;;;;14.10;10.50;;;;;;;10.69;99.46;98144.81;130894;1251;106491;-77
2023/10/21 03:55:05;;;;;;;14.20;11.30;;;;;;;10.70;99.19;98140.20;130892;1251;108403;-76
2023/10/21 03:58:11;;;;;;;15.70;10.30;;;;;;;10.69;99.47;98138.33;131266;1256;109362;-77
2023/10/21 04:01:17;;;;;;;13.90;9.90;;;;;;;10.68;99.46;98133.36;131076;1256;108603;-76
2023/10/21 04:04:22;;;;;;;14.90;9.60;;;;;;;10.68;99.33;98131.76;131157;1255;109439;-76
2023/10/21 04:07:28;;;;;;;16.90;10.80;;;;;;;10.68;99.40;98131.89;130993;1256;106744;-76
2023/10/21 04:10:34;;;;;;;15.60;10.80;;;;;;;10.71;99.42;98124.12;131029;1256;106789;-77
2023/10/21 04:13:39;;;;;;;18.50;11.90;;;;;;;10.74;99.48;98132.00;130964;1253;109184;-76
2023/10/21 04:16:45;;;;;;;17.10;10.90;;;;;;;10.74;99.50;98129.65;131009;1256;107839;-77
2023/10/21 04:19:52;;;;;;;16.30;10.60;;;;;;;10.73;99.59;98116.48;131012;1256;108597;-77
2023/10/21 04:22:58;;;;;;;16.90;11.40;;;;;;;10.73;99.49;98115.27;130884;1257;106910;-76
2023/10/21 04:26:04;;;;;;;16.10;11.30;;;;;;;10.73;99.78;98140.45;130929;1256;107716;-77
2023/10/21 04:29:10;;;;;;;14.70;11.00;;;;;;;10.75;99.89;98141.77;130988;1256;106751;-76
2023/10/21 04:32:16;;;;;;;15.90;10.50;;;;;;;10.76;99.72;98142.84;130958;1256;108499;-76
2023/10/21 04:35:22;;;;;;;17.20;10.70;;;;;;;10.74;99.58;98145.63;130954;1257;107782;-76
2023/10/21 04:38:27;;;;;;;16.90;10.90;;;;;;;10.73;99.61;98154.36;130930;1254;106765;-76
2023/10/21 04:41:33;;;;;;;18.30;12.20;;;;;;;10.74;99.81;98168.36;130693;1256;106691;-78
2023/10/21 04:44:39;;;;;;;19.50;13.60;;;;;;;10.76;99.82;98164.55;130860;1256;107681;-77
2023/10/21 04:47:44;;;;;;;18.50;12.10;;;;;;;10.79;99.61;98149.98;130995;1256;106274;-78
2023/10/21 04:50:50;;;;;;;33.10;18.30;;;;;;;10.79;99.88;98159.78;130943;1257;107014;-78
2023/10/21 04:53:55;;;;;;;31.80;17.30;;;;;;;10.78;99.76;98178.00;130889;1256;108331;-77
2023/10/21 04:57:01;;;;;;;55.60;24.20;;;;;;;10.79;99.85;98179.82;131001;1251;107477;-77
2023/10/21 05:00:09;;;;;;;73.00;29.00;;;;;;;10.82;99.70;98172.14;130976;1256;107089;-77
2023/10/21 05:03:15;;;;;;;49.20;21.80;;;;;;;10.84;99.81;98167.98;131014;1256;107023;-77
2023/10/21 05:06:21;;;;;;;49.50;21.00;;;;;;;10.84;99.85;98165.54;130944;1257;106599;-77
2023/10/21 05:09:27;;;;;;;39.80;18.40;;;;;;;10.83;99.79;98167.20;130920;1256;107420;-77
2023/10/21 05:12:32;;;;;;;25.80;14.90;;;;;;;10.84;99.81;98165.08;130941;1257;108376;-77
2023/10/21 05:15:38;;;;;;;20.60;11.50;;;;;;;10.85;99.66;98152.64;130937;1252;108560;-77
2023/10/21 05:18:44;;;;;;;19.20;12.90;;;;;;;10.85;99.80;98142.98;130967;1253;109378;-77
2023/10/21 05:21:50;;;;;;;28.70;17.30;;;;;;;10.83;99.94;98160.52;130958;1257;107736;-77
2023/10/21 05:24:56;;;;;;;42.20;17.60;;;;;;;10.83;99.95;98174.52;130961;1253;107720;-77
2023/10/21 05:28:01;;;;;;;25.30;13.90;;;;;;;10.84;99.96;98177.40;130954;1251;107809;-77
2023/10/21 05:31:07;;;;;;;33.30;16.70;;;;;;;10.87;99.96;98190.06;130961;1255;105936;-77
2023/10/21 05:34:17;;;;;;;24.90;15.70;;;;;;;10.90;100.00;98206.16;131022;1251;107700;-77
2023/10/21 05:37:23;;;;;;;27.70;15.20;;;;;;;10.91;99.94;98205.06;130919;1256;106846;-77
2023/10/21 05:40:29;;;;;;;29.20;16.30;;;;;;;10.93;100.00;98205.58;130999;1256;108641;-77
2023/10/21 05:43:34;;;;;;;34.40;17.10;;;;;;;10.95;99.97;98215.77;130943;1256;107890;-76
2023/10/21 05:46:40;;;;;;;34.20;17.10;;;;;;;10.99;99.96;98224.19;130992;1256;107821;-77
2023/10/21 05:49:45;;;;;;;28.60;16.50;;;;;;;11.04;100.00;98238.34;131023;1256;108700;-77
2023/10/21 05:52:51;;;;;;;20.20;13.10;;;;;;;11.04;99.91;98254.12;130899;1257;109265;-77
2023/10/21 05:55:58;;;;;;;18.90;12.20;;;;;;;11.06;99.95;98275.55;130972;1256;106552;-77
2023/10/21 05:59:04;;;;;;;31.60;17.40;;;;;;;11.08;100.00;98275.38;130904;1253;108551;-77
2023/10/21 06:02:11;;;;;;;28.80;16.80;;;;;;;11.11;99.95;98279.13;130952;1256;107599;-77
2023/10/21 06:05:17;;;;;;;42.50;22.10;;;;;;;11.15;100.00;98283.27;130941;1253;107563;-77
2023/10/21 06:08:22;;;;;;;43.30;20.90;;;;;;;11.18;100.00;98279.65;130934;1253;108721;-77
2023/10/21 06:11:28;;;;;;;39.60;18.60;;;;;;;11.20;100.00;98281.13;130949;1258;106698;-76
2023/10/21 06:14:34;;;;;;;39.50;19.20;;;;;;;11.23;100.00;98286.08;130954;1256;107508;-79
2023/10/21 06:17:40;;;;;;;49.30;25.20;;;;;;;11.27;100.00;98293.95;130684;1251;108567;-77
2023/10/21 06:20:50;;;;;;;40.00;21.40;;;;;;;11.31;100.00;98308.15;130943;1256;108497;-77
2023/10/21 06:23:56;;;;;;;24.60;14.90;;;;;;;11.34;100.00;98319.13;131016;1256;107768;-77
2023/10/21 06:27:04;;;;;;;31.20;17.30;;;;;;;11.35;100.00;98313.24;130941;1256;106837;-77
2023/10/21 06:30:11;;;;;;;38.80;22.50;;;;;;;11.37;100.00;98316.91;130930;1256;107600;-77
2023/10/21 06:33:17;;;;;;;33.00;19.00;;;;;;;11.42;100.00;98323.27;130918;1256;107959;-77
2023/10/21 06:36:23;;;;;;;31.00;19.80;;;;;;;11.45;100.00;98321.42;130909;1253;107383;-77
2023/10/21 06:39:29;;;;;;;25.80;15.80;;;;;;;11.47;100.00;98336.25;130940;1252;108641;-77
2023/10/21 06:42:35;;;;;;;22.80;14.60;;;;;;;11.49;100.00;98338.48;130968;1256;106990;-77
2023/10/21 06:45:41;;;;;;;21.60;15.20;;;;;;;11.52;100.00;98344.69;130888;1254;107425;-77
2023/10/21 06:48:47;;;;;;;26.00;16.70;;;;;;;11.55;100.00;98345.48;130919;1251;108775;-78
2023/10/21 06:51:55;;;;;;;26.30;17.10;;;;;;;11.58;100.00;98346.85;130948;1251;106650;-77
2023/10/21 06:55:01;;;;;;;30.00;19.20;;;;;;;11.59;99.99;98343.20;130811;1255;173987;-77
2023/10/21 06:58:07;;;;;;;33.60;17.30;;;;;;;11.58;100.00;98338.46;130940;1258;106891;-77
2023/10/21 07:01:13;;;;;;;35.50;19.70;;;;;;;11.59;100.00;98336.78;131359;1256;107643;-78
2023/10/21 07:04:19;;;;;;;28.00;17.00;;;;;;;11.63;100.00;98347.51;131147;1251;108591;-78
2023/10/21 07:07:25;;;;;;;23.70;16.80;;;;;;;11.69;100.00;98347.38;130969;1252;107479;-78
2023/10/21 07:10:30;;;;;;;24.70;16.60;;;;;;;11.73;100.00;98344.53;131037;1256;107151;-77
2023/10/21 07:13:36;;;;;;;24.80;15.40;;;;;;;11.75;100.00;98336.80;130878;1256;108665;-77
2023/10/21 07:16:42;;;;;;;27.40;17.60;;;;;;;11.77;100.00;98337.80;130886;1255;106582;-79
2023/10/21 07:19:47;;;;;;;26.00;18.20;;;;;;;11.79;100.00;98344.95;130933;1254;107358;-78
2023/10/21 07:22:53;;;;;;;23.80;16.10;;;;;;;11.84;100.00;98346.91;130969;1256;106981;-77
2023/10/21 07:26:00;;;;;;;29.70;17.90;;;;;;;11.86;100.00;98336.39;130897;1256;106995;-78
2023/10/21 07:29:07;;;;;;;22.40;14.90;;;;;;;11.88;100.00;98340.90;130896;1256;106672;-77
2023/10/21 07:32:12;;;;;;;23.30;15.50;;;;;;;11.93;100.00;98348.89;130954;1256;108743;-78
2023/10/21 07:35:18;;;;;;;22.80;16.30;;;;;;;11.97;100.00;98347.90;131059;1253;107379;-78
2023/10/21 07:38:24;;;;;;;25.80;16.90;;;;;;;12.02;100.00;98349.29;130966;1256;108399;-78
2023/10/21 07:41:30;;;;;;;23.70;16.00;;;;;;;12.04;100.00;98362.64;130935;1267;107959;-77
2023/10/21 07:44:41;;;;;;;24.40;15.50;;;;;;;12.06;100.00;98364.58;130902;1253;108650;-80
2023/10/21 07:47:50;;;;;;;24.10;16.40;;;;;;;12.08;100.00;98371.16;130613;1259;108684;-77
2023/10/21 07:50:58;;;;;;;22.00;16.50;;;;;;;12.11;100.00;98364.93;130979;1256;108523;-79
2023/10/21 07:54:03;;;;;;;26.90;16.80;;;;;;;12.12;100.00;98368.14;130918;1254;108584;-80
2023/10/21 07:57:09;;;;;;;21.80;16.30;;;;;;;12.14;100.00;98378.26;131000;1256;106819;-77
2023/10/21 08:00:16;;;;;;;22.80;15.30;;;;;;;12.19;100.00;98384.17;130869;1256;106621;-79
2023/10/21 08:03:22;;;;;;;22.50;16.50;;;;;;;12.27;100.00;98392.90;131002;1253;108491;-79
2023/10/21 08:06:28;;;;;;;24.40;16.50;;;;;;;12.32;100.00;98406.97;130998;1252;108001;-79
2023/10/21 08:09:35;;;;;;;22.30;16.80;;;;;;;12.35;100.00;98423.34;130899;1253;107643;-80
2023/10/21 08:12:41;;;;;;;23.10;16.20;;;;;;;12.31;100.00;98431.86;130961;1256;108000;-76
2023/10/21 08:15:47;;;;;;;19.70;14.50;;;;;;;12.28;100.00;98451.23;130911;1256;107016;-76
2023/10/21 08:18:53;;;;;;;22.90;16.10;;;;;;;12.30;100.00;98453.59;131127;1256;106544;-76
2023/10/21 08:21:59;;;;;;;22.70;16.60;;;;;;;12.35;100.00;98443.61;130909;1257;107749;-76
2023/10/21 08:25:06;;;;;;;22.00;16.70;;;;;;;12.40;100.00;98464.55;130982;1251;108668;-76
2023/10/21 08:28:12;;;;;;;26.30;17.70;;;;;;;12.39;100.00;98460.02;130963;1251;108553;-76
2023/10/21 08:31:18;;;;;;;27.90;20.60;;;;;;;12.33;100.00;98452.18;130945;1256;107748;-76
2023/10/21 08:34:24;;;;;;;25.20;18.00;;;;;;;12.34;100.00;98463.42;130904;1255;108650;-75
2023/10/21 08:37:32;;;;;;;32.80;22.10;;;;;;;12.40;100.00;98458.08;130906;1256;106624;-75
2023/10/21 08:40:47;;;;;;;42.90;25.20;;;;;;;12.47;100.00;98464.17;130917;1253;108200;-77
2023/10/21 08:43:59;;;;;;;38.90;22.30;;;;;;;12.51;100.00;98469.67;130971;1266;107542;-75
2023/10/21 08:47:13;;;;;;;45.00;24.70;;;;;;;12.55;100.00;98468.40;130946;1256;108654;-75
2023/10/21 08:50:22;;;;;;;30.10;21.00;;;;;;;12.59;100.00;98463.93;130915;1255;106911;-77
2023/10/21 08:53:34;;;;;;;27.60;20.10;;;;;;;12.64;100.00;98458.95;130916;1254;106681;-75
2023/10/21 08:56:56;;;;;;;31.00;20.20;;;;;;;12.67;100.00;98473.10;130849;1261;107676;-75
2023/10/21 09:00:04;;;;;;;44.20;28.50;;;;;;;12.67;100.00;98499.69;130863;1255;107298;-77
2023/10/21 09:03:10;;;;;;;35.90;23.10;;;;;;;12.67;100.00;98515.45;130863;1256;107473;-76
2023/10/21 09:06:17;;;;;;;29.60;20.70;;;;;;;12.67;100.00;98524.18;130762;1256;108639;-75
2023/10/21 09:09:26;;;;;;;30.70;21.10;;;;;;;12.71;100.00;98523.52;130800;1253;108771;-76
2023/10/21 09:12:32;;;;;;;47.10;28.50;;;;;;;12.74;100.00;98520.09;130812;1256;107813;-75
2023/10/21 09:15:38;;;;;;;67.20;36.20;;;;;;;12.75;100.00;98517.05;130734;1253;108593;-75
2023/10/21 09:18:58;;;;;;;37.70;23.90;;;;;;;12.76;100.00;98516.91;130753;1256;107846;-73
2023/10/21 09:22:03;;;;;;;60.10;34.90;;;;;;;12.81;100.00;98528.92;130783;1259;108644;-76
2023/10/21 09:25:15;;;;;;;42.20;27.40;;;;;;;12.88;100.00;98545.63;130751;1253;107623;-76
2023/10/21 09:28:24;;;;;;;38.50;25.80;;;;;;;12.94;100.00;98554.34;130853;1254;107534;-76
2023/10/21 09:31:43;;;;;;;43.10;30.20;;;;;;;12.99;100.00;98549.84;130820;1256;107445;-75
2023/10/21 09:34:50;;;;;;;50.20;32.50;;;;;;;13.05;100.00;98556.41;130861;1257;108648;-75
2023/10/21 09:37:56;;;;;;;49.80;33.70;;;;;;;13.09;100.00;98570.20;130820;1256;109298;-74
2023/10/21 09:41:03;;;;;;;46.50;29.70;;;;;;;13.14;100.00;98587.08;130793;1253;108439;-75
2023/10/21 09:44:13;;;;;;;44.10;28.90;;;;;;;13.18;100.00;98577.09;130882;1256;106513;-74
2023/10/21 09:47:21;;;;;;;42.80;27.60;;;;;;;13.23;100.00;98583.01;130858;1256;106607;-74
2023/10/21 09:50:27;;;;;;;39.00;26.00;;;;;;;13.30;100.00;98577.91;130836;1253;107709;-74
2023/10/21 09:53:39;;;;;;;36.20;25.40;;;;;;;13.42;100.00;98567.90;130881;1256;107533;-75
2023/10/21 09:56:47;;;;;;;39.90;27.20;;;;;;;13.58;100.00;98576.51;130890;1253;106472;-75
2023/10/21 09:59:54;;;;;;;38.20;27.80;;;;;;;13.75;100.00;98570.92;130889;1257;107815;-75
2023/10/21 10:03:00;;;;;;;39.10;25.80;;;;;;;13.90;100.00;98570.10;130944;1251;106869;-75
2023/10/21 10:06:08;;;;;;;33.60;23.90;;;;;;;14.04;100.00;98573.10;131010;1256;109162;-76
2023/10/21 10:09:14;;;;;;;33.80;23.90;;;;;;;14.18;100.00;98570.66;130830;1256;108957;-75
2023/10/21 10:12:25;;;;;;;33.00;24.00;;;;;;;14.33;100.00;98565.30;130933;1256;106995;-75
2023/10/21 10:15:37;;;;;;;37.10;25.00;;;;;;;14.46;100.00;98557.13;130954;1254;106813;-75
2023/10/21 10:18:50;;;;;;;32.10;22.90;;;;;;;14.59;100.00;98563.95;131009;1253;107326;-75
2023/10/21 10:21:57;;;;;;;30.00;21.60;;;;;;;14.69;100.00;98572.31;130961;1253;106498;-76
2023/10/21 10:25:11;;;;;;;30.40;21.90;;;;;;;14.78;100.00;98589.34;131016;1255;106483;-74
2023/10/21 10:28:20;;;;;;;30.60;22.70;;;;;;;14.86;100.00;98581.65;130952;1256;108552;-73
2023/10/21 10:31:29;;;;;;;29.80;23.00;;;;;;;14.92;100.00;98571.34;130958;1256;107733;-74
2023/10/21 10:34:42;;;;;;;30.80;20.40;;;;;;;14.97;100.00;98578.70;130966;1256;107672;-74
2023/10/21 10:37:53;;;;;;;30.20;22.30;;;;;;;15.02;100.00;98578.59;131010;1254;107255;-74
2023/10/21 10:41:06;;;;;;;26.80;19.50;;;;;;;15.05;99.97;98591.74;130931;1256;107803;-74
2023/10/21 10:44:11;;;;;;;24.00;19.20;;;;;;;15.11;99.99;98605.33;130961;1254;106712;-75
2023/10/21 10:47:18;;;;;;;26.20;19.60;;;;;;;15.21;100.00;98615.19;130953;1256;108688;-79
2023/10/21 10:50:24;;;;;;;24.00;18.40;;;;;;;15.25;99.88;98624.96;131024;1255;107662;-77
2023/10/21 10:53:30;;;;;;;26.50;18.10;;;;;;;15.24;100.00;98633.39;131022;1254;108431;-78
2023/10/21 10:56:43;;;;;;;32.50;23.40;;;;;;;15.22;99.98;98644.52;130915;1253;109406;-80
2023/10/21 10:59:50;;;;;;;37.00;26.90;;;;;;;15.23;99.94;98634.86;131007;1256;108527;-80
2023/10/21 11:02:55;;;;;;;30.60;21.30;;;;;;;15.18;100.00;98642.08;131030;1256;108557;-79
2023/10/21 11:06:03;;;;;;;25.40;19.80;;;;;;;15.13;99.95;98641.72;130923;1254;107845;-77
2023/10/21 11:09:16;;;;;;;35.30;22.70;;;;;;;15.10;99.89;98646.17;130876;1256;107863;-77
2023/10/21 11:12:27;;;;;;;27.10;21.00;;;;;;;15.13;100.00;98661.92;131015;1255;107287;-78
2023/10/21 11:15:40;;;;;;;28.20;20.30;;;;;;;15.24;100.00;98665.20;130959;1253;108340;-78
2023/10/21 11:18:46;;;;;;;33.50;23.50;;;;;;;15.31;100.00;98662.41;130972;1256;108629;-78
2023/10/21 11:21:52;;;;;;;31.20;21.00;;;;;;;15.45;100.00;98661.51;130977;1256;107884;-78
2023/10/21 11:24:57;;;;;;;24.60;17.70;;;;;;;15.63;100.00;98671.11;130936;1251;106859;-79
2023/10/21 11:28:03;;;;;;;28.10;20.50;;;;;;;15.78;99.84;98673.52;131025;1256;106652;-78
2023/10/21 11:31:10;;;;;;;27.90;20.10;;;;;;;15.85;99.68;98676.84;130978;1256;106812;-79
2023/10/21 11:34:19;;;;;;;27.10;21.30;;;;;;;15.88;99.32;98681.67;131087;1256;107819;-80
2023/10/21 11:37:25;;;;;;;28.70;21.20;;;;;;;15.86;99.63;98669.70;130916;1256;108059;-77
2023/10/21 11:40:32;;;;;;;29.50;20.30;;;;;;;15.88;99.65;98670.88;130941;1258;107799;-76
2023/10/21 11:43:44;;;;;;;41.00;28.80;;;;;;;15.92;99.40;98693.22;130999;1257;108541;-77
2023/10/21 11:46:50;;;;;;;38.60;26.40;;;;;;;15.86;99.57;98694.49;130917;1256;106554;-78
2023/10/21 11:49:57;;;;;;;33.60;25.50;;;;;;;15.81;99.70;98695.17;130935;1256;108781;-76
2023/10/21 11:53:05;;;;;;;32.10;23.90;;;;;;;15.82;100.00;98697.97;130890;1253;107269;-78
2023/10/21 12:13:47;;;;;;;30.50;23.50;;;;;;;15.93;100.00;98727.80;131091;1256;108742;-77
2023/10/21 12:17:04;;;;;;;33.10;25.10;;;;;;;16.01;100.00;98737.05;130880;1259;107680;-77
2023/10/21 12:20:44;;;;;;;37.60;28.10;;;;;;;16.12;100.00;98741.61;130904;1256;108775;-76
2023/10/21 12:34:35;;;;;;;37.70;27.80;;;;;;;16.23;100.00;98748.86;127123;1295;635131;-77
2023/10/21 12:38:20;;;;;;;39.60;29.30;;;;;;;16.31;100.00;98756.67;130139;1266;106727;-77
2023/10/21 12:41:25;;;;;;;32.80;26.00;;;;;;;16.34;100.00;98765.22;131218;1251;108598;-77
2023/10/21 12:44:37;;;;;;;32.30;24.40;;;;;;;16.39;100.00;98772.18;131082;1253;106366;-73
2023/10/21 12:47:43;;;;;;;33.80;25.00;;;;;;;16.40;100.00;98770.97;131148;1262;274951;-74
2023/10/21 12:50:50;;;;;;;35.70;25.60;;;;;;;16.30;100.00;98776.19;131663;1250;107592;-75
2023/10/21 12:53:56;;;;;;;36.90;25.70;;;;;;;16.24;100.00;98785.45;131939;1246;107183;-75
2023/10/21 12:57:01;;;;;;;36.40;24.80;;;;;;;16.20;100.00;98792.27;131766;1250;108690;-75
2023/10/21 13:00:11;;;;;;;32.90;24.60;;;;;;;16.19;100.00;98798.36;131761;1250;108482;-75
2023/10/21 13:03:17;;;;;;;30.60;24.60;;;;;;;16.19;100.00;98804.90;131781;1248;107769;-76
2023/10/21 13:06:23;;;;;;;34.70;27.30;;;;;;;16.20;100.00;98817.02;131552;1250;109076;-75
2023/10/21 13:09:29;;;;;;;31.30;23.10;;;;;;;16.19;100.00;98829.05;131567;1250;108443;-77
2023/10/21 13:12:35;;;;;;;37.30;25.70;;;;;;;16.20;100.00;98819.87;131579;1250;106766;-77
2023/10/21 13:15:40;;;;;;;34.00;23.60;;;;;;;16.21;100.00;98816.35;131446;1252;107770;-77
2023/10/21 13:18:46;;;;;;;36.00;26.40;;;;;;;16.22;100.00;98827.80;131559;1254;108724;-77
2023/10/21 13:21:53;;;;;;;35.00;26.70;;;;;;;16.23;100.00;98829.23;131586;1250;106776;-77
2023/10/21 13:25:07;;;;;;;36.00;26.20;;;;;;;16.28;100.00;98830.00;131580;1248;107593;-77
2023/10/21 13:28:13;;;;;;;35.10;25.60;;;;;;;16.26;100.00;98830.27;131614;1250;107643;-77
2023/10/21 13:31:19;;;;;;;35.10;24.60;;;;;;;16.25;100.00;98837.73;131608;1251;108481;-77
2023/10/21 13:34:25;;;;;;;36.60;24.60;;;;;;;16.24;100.00;98834.64;131607;1247;108945;-77
2023/10/21 13:37:32;;;;;;;35.20;25.10;;;;;;;16.26;100.00;98835.13;131581;1248;108572;-77
2023/10/21 13:40:40;;;;;;;38.10;26.30;;;;;;;16.29;100.00;98840.00;131585;1250;106797;-77
2023/10/21 13:43:45;;;;;;;34.40;25.50;;;;;;;16.30;100.00;98846.42;131621;1250;107941;-77
2023/10/21 13:46:51;;;;;;;34.00;24.70;;;;;;;16.25;100.00;98852.77;131533;1249;108386;-77
2023/10/21 13:49:57;;;;;;;32.40;23.60;;;;;;;16.23;100.00;98855.23;131568;1250;108825;-77
2023/10/21 13:53:10;;;;;;;35.30;23.40;;;;;;;16.23;100.00;98863.19;131542;1250;108051;-77
2023/10/21 13:56:16;;;;;;;34.10;23.90;;;;;;;16.23;100.00;98866.16;131615;1250;106890;-76
2023/10/21 13:59:23;;;;;;;32.30;24.80;;;;;;;16.23;100.00;98872.83;131576;1248;108332;-76
2023/10/21 14:02:29;;;;;;;34.50;26.00;;;;;;;16.24;100.00;98879.73;131443;1248;108657;-77
2023/10/21 14:05:34;;;;;;;34.20;25.70;;;;;;;16.24;100.00;98884.27;131460;1250;108380;-79
2023/10/21 14:08:40;;;;;;;36.10;27.60;;;;;;;16.21;100.00;98889.25;131459;1250;108343;-73
2023/10/21 14:11:45;;;;;;;38.80;27.90;;;;;;;16.20;100.00;98892.91;131659;1248;107547;-75
2023/10/21 14:14:51;;;;;;;41.40;30.00;;;;;;;16.19;100.00;98909.52;131633;1253;107226;-76
2023/10/21 14:17:57;;;;;;;40.10;30.30;;;;;;;16.18;100.00;98915.83;131500;1250;108561;-77
2023/10/21 14:21:04;;;;;;;41.20;30.00;;;;;;;16.16;100.00;98915.19;131476;1253;106488;-77
2023/10/21 14:24:10;;;;;;;39.70;29.50;;;;;;;16.10;100.00;98917.64;131535;1250;106934;-76
2023/10/21 14:27:15;;;;;;;37.60;29.70;;;;;;;16.04;100.00;98914.55;131487;1248;107461;-76